sensor_id;sensor_type;location;lat;lon;timestamp;P1;durP1;ratioP1;P2;durP2;ratioP2
48552;SDS011;34335;51.566;6.994;2022-07-09T00:00:32;5.40;;;2.67;;
48552;SDS011;34335;51.566;6.994;2022-07-09T00:02:58;5.38;;;2.78;;
48552;SDS011;34335;51.566;6.994;2022-07-09T00:05:23;4.03;;;2.83;;
48552;SDS011;34335;51.566;6.994;2022-07-09T00:07:48;5.15;;;2.40;;
48552;SDS011;34335;51.566;6.994;2022-07-09T00:10:14;5.00;;;2.43;;
48552;SDS011;34335;51.566;6.994;2022-07-09T00:12:39;4.80;;;2.90;;
48552;SDS011;34335;51.566;6.994;2022-07-09T00:15:04;7.27;;;2.87;;
48552;SDS011;34335;51.566;6.994;2022-07-09T00:17:31;4.47;;;2.38;;
48552;SDS011;34335;51.566;6.994;2022-07-09T00:19:56;5.78;;;2.95;;
48552;SDS011;34335;51.566;6.994;2022-07-09T00:22:22;7.03;;;2.90;;
48552;SDS011;34335;51.566;6.994;2022-07-09T00:24:47;5.20;;;2.50;;
48552;SDS011;34335;51.566;6.994;2022-07-09T00:27:12;6.75;;;2.95;;
48552;SDS011;34335;51.566;6.994;2022-07-09T00:29:38;10.93;;;2.92;;
48552;SDS011;34335;51.566;6.994;2022-07-09T00:32:03;5.00;;;2.70;;
48552;SDS011;34335;51.566;6.994;2022-07-09T00:34:29;5.45;;;3.30;;
48552;SDS011;34335;51.566;6.994;2022-07-09T00:36:54;6.53;;;2.97;;
48552;SDS011;34335;51.566;6.994;2022-07-09T00:39:19;7.23;;;3.47;;
48552;SDS011;34335;51.566;6.994;2022-07-09T00:41:45;6.97;;;3.42;;
48552;SDS011;34335;51.566;6.994;2022-07-09T00:44:10;5.40;;;3.57;;
48552;SDS011;34335;51.566;6.994;2022-07-09T00:46:35;6.15;;;3.38;;
48552;SDS011;34335;51.566;6.994;2022-07-09T00:49:01;5.60;;;3.00;;
48552;SDS011;34335;51.566;6.994;2022-07-09T00:51:28;5.18;;;3.10;;
48552;SDS011;34335;51.566;6.994;2022-07-09T00:53:55;5.63;;;2.95;;
48552;SDS011;34335;51.566;6.994;2022-07-09T00:56:21;5.95;;;3.17;;
48552;SDS011;34335;51.566;6.994;2022-07-09T00:58:48;9.45;;;3.63;;
48552;SDS011;34335;51.566;6.994;2022-07-09T01:01:14;7.03;;;2.75;;
48552;SDS011;34335;51.566;6.994;2022-07-09T01:03:39;5.50;;;3.17;;
48552;SDS011;34335;51.566;6.994;2022-07-09T01:06:04;5.90;;;3.23;;
48552;SDS011;34335;51.566;6.994;2022-07-09T01:08:29;7.83;;;3.30;;
48552;SDS011;34335;51.566;6.994;2022-07-09T01:10:55;6.47;;;3.08;;
48552;SDS011;34335;51.566;6.994;2022-07-09T01:13:21;6.40;;;3.42;;
48552;SDS011;34335;51.566;6.994;2022-07-09T01:15:46;8.20;;;3.60;;
48552;SDS011;34335;51.566;6.994;2022-07-09T01:18:12;5.43;;;3.20;;
48552;SDS011;34335;51.566;6.994;2022-07-09T01:20:37;5.22;;;3.05;;
48552;SDS011;34335;51.566;6.994;2022-07-09T01:23:03;6.95;;;3.58;;
48552;SDS011;34335;51.566;6.994;2022-07-09T01:25:42;6.72;;;3.10;;
48552;SDS011;34335;51.566;6.994;2022-07-09T01:28:10;5.00;;;3.35;;
48552;SDS011;34335;51.566;6.994;2022-07-09T01:30:37;7.28;;;3.60;;
48552;SDS011;34335;51.566;6.994;2022-07-09T01:33:03;6.50;;;3.38;;
48552;SDS011;34335;51.566;6.994;2022-07-09T01:35:29;4.82;;;3.10;;
48552;SDS011;34335;51.566;6.994;2022-07-09T01:37:54;10.25;;;3.83;;
48552;SDS011;34335;51.566;6.994;2022-07-09T01:40:20;4.28;;;3.10;;
48552;SDS011;34335;51.566;6.994;2022-07-09T01:42:46;8.40;;;3.47;;
48552;SDS011;34335;51.566;6.994;2022-07-09T01:45:12;10.80;;;4.15;;
48552;SDS011;34335;51.566;6.994;2022-07-09T01:47:38;7.13;;;3.88;;
48552;SDS011;34335;51.566;6.994;2022-07-09T01:50:04;6.93;;;3.10;;
48552;SDS011;34335;51.566;6.994;2022-07-09T01:52:30;4.57;;;2.78;;
48552;SDS011;34335;51.566;6.994;2022-07-09T01:54:55;5.25;;;3.75;;
48552;SDS011;34335;51.566;6.994;2022-07-09T01:57:21;11.48;;;3.88;;
48552;SDS011;34335;51.566;6.994;2022-07-09T01:59:46;8.07;;;3.67;;
48552;SDS011;34335;51.566;6.994;2022-07-09T02:02:11;7.97;;;4.90;;
48552;SDS011;34335;51.566;6.994;2022-07-09T02:04:36;6.40;;;3.60;;
48552;SDS011;34335;51.566;6.994;2022-07-09T02:07:02;6.05;;;4.07;;
48552;SDS011;34335;51.566;6.994;2022-07-09T02:09:27;5.72;;;3.92;;
48552;SDS011;34335;51.566;6.994;2022-07-09T02:11:52;8.90;;;3.93;;
48552;SDS011;34335;51.566;6.994;2022-07-09T02:14:18;5.60;;;3.90;;
48552;SDS011;34335;51.566;6.994;2022-07-09T02:16:43;9.10;;;4.00;;
48552;SDS011;34335;51.566;6.994;2022-07-09T02:19:08;9.10;;;4.03;;
48552;SDS011;34335;51.566;6.994;2022-07-09T02:21:34;5.03;;;3.65;;
48552;SDS011;34335;51.566;6.994;2022-07-09T02:23:59;9.52;;;4.05;;
48552;SDS011;34335;51.566;6.994;2022-07-09T02:26:25;5.80;;;3.65;;
48552;SDS011;34335;51.566;6.994;2022-07-09T02:28:53;4.97;;;3.80;;
48552;SDS011;34335;51.566;6.994;2022-07-09T02:31:19;8.80;;;4.50;;
48552;SDS011;34335;51.566;6.994;2022-07-09T02:33:44;9.67;;;3.90;;
48552;SDS011;34335;51.566;6.994;2022-07-09T02:36:09;6.90;;;3.90;;
48552;SDS011;34335;51.566;6.994;2022-07-09T02:38:34;5.45;;;4.00;;
48552;SDS011;34335;51.566;6.994;2022-07-09T02:41:00;8.57;;;4.40;;
48552;SDS011;34335;51.566;6.994;2022-07-09T02:43:26;4.38;;;3.63;;
48552;SDS011;34335;51.566;6.994;2022-07-09T02:45:51;8.93;;;4.10;;
48552;SDS011;34335;51.566;6.994;2022-07-09T02:48:20;8.48;;;4.03;;
48552;SDS011;34335;51.566;6.994;2022-07-09T02:50:45;7.78;;;3.90;;
48552;SDS011;34335;51.566;6.994;2022-07-09T02:53:11;7.28;;;3.97;;
48552;SDS011;34335;51.566;6.994;2022-07-09T02:55:36;9.40;;;4.33;;
48552;SDS011;34335;51.566;6.994;2022-07-09T02:58:01;5.78;;;3.72;;
48552;SDS011;34335;51.566;6.994;2022-07-09T03:00:26;7.18;;;4.15;;
48552;SDS011;34335;51.566;6.994;2022-07-09T03:02:52;7.97;;;4.40;;
48552;SDS011;34335;51.566;6.994;2022-07-09T03:05:17;5.80;;;3.93;;
48552;SDS011;34335;51.566;6.994;2022-07-09T03:07:42;6.53;;;4.55;;
48552;SDS011;34335;51.566;6.994;2022-07-09T03:10:08;7.40;;;4.97;;
48552;SDS011;34335;51.566;6.994;2022-07-09T03:12:33;8.50;;;4.70;;
48552;SDS011;34335;51.566;6.994;2022-07-09T03:14:59;6.10;;;3.78;;
48552;SDS011;34335;51.566;6.994;2022-07-09T03:17:24;9.10;;;4.43;;
48552;SDS011;34335;51.566;6.994;2022-07-09T03:19:51;9.35;;;5.40;;
48552;SDS011;34335;51.566;6.994;2022-07-09T03:22:16;6.67;;;4.57;;
48552;SDS011;34335;51.566;6.994;2022-07-09T03:24:42;8.10;;;4.13;;
48552;SDS011;34335;51.566;6.994;2022-07-09T03:27:07;7.15;;;4.97;;
48552;SDS011;34335;51.566;6.994;2022-07-09T03:29:33;8.50;;;4.68;;
48552;SDS011;34335;51.566;6.994;2022-07-09T03:31:58;11.40;;;4.80;;
48552;SDS011;34335;51.566;6.994;2022-07-09T03:34:23;7.27;;;4.63;;
48552;SDS011;34335;51.566;6.994;2022-07-09T03:36:48;6.30;;;4.80;;
48552;SDS011;34335;51.566;6.994;2022-07-09T03:39:14;11.13;;;4.47;;
48552;SDS011;34335;51.566;6.994;2022-07-09T03:41:39;6.82;;;5.65;;
48552;SDS011;34335;51.566;6.994;2022-07-09T03:44:05;9.50;;;5.55;;
48552;SDS011;34335;51.566;6.994;2022-07-09T03:46:30;10.40;;;6.43;;
48552;SDS011;34335;51.566;6.994;2022-07-09T03:48:56;8.35;;;5.38;;
48552;SDS011;34335;51.566;6.994;2022-07-09T03:51:21;9.52;;;6.03;;
48552;SDS011;34335;51.566;6.994;2022-07-09T03:53:47;10.48;;;6.35;;
48552;SDS011;34335;51.566;6.994;2022-07-09T03:56:12;9.50;;;5.90;;
48552;SDS011;34335;51.566;6.994;2022-07-09T03:58:37;7.77;;;5.37;;
48552;SDS011;34335;51.566;6.994;2022-07-09T04:01:03;9.30;;;5.43;;
48552;SDS011;34335;51.566;6.994;2022-07-09T04:03:28;7.43;;;5.57;;
48552;SDS011;34335;51.566;6.994;2022-07-09T04:05:54;11.47;;;6.20;;
48552;SDS011;34335;51.566;6.994;2022-07-09T04:08:19;8.23;;;5.30;;
48552;SDS011;34335;51.566;6.994;2022-07-09T04:10:44;9.77;;;5.07;;
48552;SDS011;34335;51.566;6.994;2022-07-09T04:13:09;6.80;;;5.17;;
48552;SDS011;34335;51.566;6.994;2022-07-09T04:15:35;10.03;;;5.50;;
48552;SDS011;34335;51.566;6.994;2022-07-09T04:18:00;8.38;;;5.65;;
48552;SDS011;34335;51.566;6.994;2022-07-09T04:20:25;6.78;;;4.88;;
48552;SDS011;34335;51.566;6.994;2022-07-09T04:22:51;6.97;;;4.95;;
48552;SDS011;34335;51.566;6.994;2022-07-09T04:25:17;9.02;;;4.82;;
48552;SDS011;34335;51.566;6.994;2022-07-09T04:27:42;7.93;;;4.90;;
48552;SDS011;34335;51.566;6.994;2022-07-09T04:30:08;11.73;;;5.38;;
48552;SDS011;34335;51.566;6.994;2022-07-09T04:32:34;8.88;;;4.90;;
48552;SDS011;34335;51.566;6.994;2022-07-09T04:35:00;6.50;;;4.57;;
48552;SDS011;34335;51.566;6.994;2022-07-09T04:37:26;7.10;;;5.07;;
48552;SDS011;34335;51.566;6.994;2022-07-09T04:39:51;12.70;;;5.05;;
48552;SDS011;34335;51.566;6.994;2022-07-09T04:42:16;6.90;;;4.47;;
48552;SDS011;34335;51.566;6.994;2022-07-09T04:44:41;7.55;;;4.38;;
48552;SDS011;34335;51.566;6.994;2022-07-09T04:47:08;8.45;;;4.15;;
48552;SDS011;34335;51.566;6.994;2022-07-09T04:49:34;10.25;;;4.28;;
48552;SDS011;34335;51.566;6.994;2022-07-09T04:52:00;6.70;;;4.10;;
48552;SDS011;34335;51.566;6.994;2022-07-09T04:54:25;6.05;;;4.13;;
48552;SDS011;34335;51.566;6.994;2022-07-09T04:56:50;6.40;;;3.80;;
48552;SDS011;34335;51.566;6.994;2022-07-09T04:59:15;6.97;;;4.28;;
48552;SDS011;34335;51.566;6.994;2022-07-09T05:01:41;7.47;;;4.10;;
48552;SDS011;34335;51.566;6.994;2022-07-09T05:04:06;6.05;;;4.22;;
48552;SDS011;34335;51.566;6.994;2022-07-09T05:06:32;11.60;;;4.28;;
48552;SDS011;34335;51.566;6.994;2022-07-09T05:08:57;8.32;;;4.70;;
48552;SDS011;34335;51.566;6.994;2022-07-09T05:11:22;7.35;;;4.72;;
48552;SDS011;34335;51.566;6.994;2022-07-09T05:13:48;9.98;;;5.47;;
48552;SDS011;34335;51.566;6.994;2022-07-09T05:16:13;11.48;;;6.72;;
48552;SDS011;34335;51.566;6.994;2022-07-09T05:18:39;7.80;;;5.70;;
48552;SDS011;34335;51.566;6.994;2022-07-09T05:21:05;10.20;;;6.57;;
48552;SDS011;34335;51.566;6.994;2022-07-09T05:23:30;11.50;;;7.30;;
48552;SDS011;34335;51.566;6.994;2022-07-09T05:25:56;13.32;;;6.68;;
48552;SDS011;34335;51.566;6.994;2022-07-09T05:28:21;15.00;;;8.07;;
48552;SDS011;34335;51.566;6.994;2022-07-09T05:30:46;13.10;;;7.77;;
48552;SDS011;34335;51.566;6.994;2022-07-09T05:33:12;11.77;;;7.30;;
48552;SDS011;34335;51.566;6.994;2022-07-09T05:35:37;13.18;;;7.90;;
48552;SDS011;34335;51.566;6.994;2022-07-09T05:38:03;13.00;;;8.50;;
48552;SDS011;34335;51.566;6.994;2022-07-09T05:40:28;11.75;;;8.05;;
48552;SDS011;34335;51.566;6.994;2022-07-09T05:42:55;14.80;;;7.18;;
48552;SDS011;34335;51.566;6.994;2022-07-09T05:45:20;12.85;;;7.50;;
48552;SDS011;34335;51.566;6.994;2022-07-09T05:47:45;11.60;;;8.23;;
48552;SDS011;34335;51.566;6.994;2022-07-09T05:50:11;12.43;;;8.07;;
48552;SDS011;34335;51.566;6.994;2022-07-09T05:52:36;12.88;;;7.70;;
48552;SDS011;34335;51.566;6.994;2022-07-09T05:55:02;15.52;;;9.05;;
48552;SDS011;34335;51.566;6.994;2022-07-09T05:57:28;10.85;;;7.68;;
48552;SDS011;34335;51.566;6.994;2022-07-09T05:59:53;17.83;;;7.57;;
48552;SDS011;34335;51.566;6.994;2022-07-09T06:02:19;18.92;;;7.63;;
48552;SDS011;34335;51.566;6.994;2022-07-09T06:04:44;25.63;;;9.63;;
48552;SDS011;34335;51.566;6.994;2022-07-09T06:07:10;23.45;;;8.40;;
48552;SDS011;34335;51.566;6.994;2022-07-09T06:09:35;12.77;;;7.32;;
48552;SDS011;34335;51.566;6.994;2022-07-09T06:12:00;13.27;;;7.07;;
48552;SDS011;34335;51.566;6.994;2022-07-09T06:14:26;11.77;;;7.13;;
48552;SDS011;34335;51.566;6.994;2022-07-09T06:16:51;12.52;;;7.43;;
48552;SDS011;34335;51.566;6.994;2022-07-09T06:19:18;17.42;;;6.90;;
48552;SDS011;34335;51.566;6.994;2022-07-09T06:21:43;14.57;;;7.53;;
48552;SDS011;34335;51.566;6.994;2022-07-09T06:24:08;14.77;;;6.68;;
48552;SDS011;34335;51.566;6.994;2022-07-09T06:26:34;15.67;;;6.80;;
48552;SDS011;34335;51.566;6.994;2022-07-09T06:28:59;14.00;;;6.78;;
48552;SDS011;34335;51.566;6.994;2022-07-09T06:31:25;11.20;;;6.15;;
48552;SDS011;34335;51.566;6.994;2022-07-09T06:33:50;7.80;;;3.65;;
48552;SDS011;34335;51.566;6.994;2022-07-09T06:36:16;6.65;;;2.78;;
48552;SDS011;34335;51.566;6.994;2022-07-09T06:38:41;5.45;;;2.28;;
48552;SDS011;34335;51.566;6.994;2022-07-09T06:41:25;5.93;;;1.90;;
48552;SDS011;34335;51.566;6.994;2022-07-09T06:43:50;8.60;;;2.85;;
48552;SDS011;34335;51.566;6.994;2022-07-09T06:46:16;5.95;;;3.10;;
48552;SDS011;34335;51.566;6.994;2022-07-09T06:48:41;6.53;;;3.00;;
48552;SDS011;34335;51.566;6.994;2022-07-09T06:51:06;9.23;;;3.60;;
48552;SDS011;34335;51.566;6.994;2022-07-09T06:53:32;8.23;;;3.67;;
48552;SDS011;34335;51.566;6.994;2022-07-09T06:55:57;8.97;;;4.10;;
48552;SDS011;34335;51.566;6.994;2022-07-09T06:58:22;9.17;;;4.37;;
48552;SDS011;34335;51.566;6.994;2022-07-09T07:00:47;10.10;;;3.30;;
48552;SDS011;34335;51.566;6.994;2022-07-09T07:03:13;5.57;;;2.53;;
48552;SDS011;34335;51.566;6.994;2022-07-09T07:05:40;10.50;;;4.28;;
48552;SDS011;34335;51.566;6.994;2022-07-09T07:08:05;6.67;;;3.60;;
48552;SDS011;34335;51.566;6.994;2022-07-09T07:10:30;6.30;;;3.40;;
48552;SDS011;34335;51.566;6.994;2022-07-09T07:12:55;5.70;;;3.00;;
48552;SDS011;34335;51.566;6.994;2022-07-09T07:15:21;7.70;;;2.83;;
48552;SDS011;34335;51.566;6.994;2022-07-09T07:17:46;6.20;;;2.70;;
48552;SDS011;34335;51.566;6.994;2022-07-09T07:20:13;6.03;;;2.20;;
48552;SDS011;34335;51.566;6.994;2022-07-09T07:22:39;6.20;;;2.90;;
48552;SDS011;34335;51.566;6.994;2022-07-09T07:25:04;5.03;;;2.78;;
48552;SDS011;34335;51.566;6.994;2022-07-09T07:27:30;6.88;;;2.45;;
48552;SDS011;34335;51.566;6.994;2022-07-09T07:29:55;6.87;;;1.70;;
48552;SDS011;34335;51.566;6.994;2022-07-09T07:32:21;4.60;;;2.00;;
48552;SDS011;34335;51.566;6.994;2022-07-09T07:34:46;4.00;;;2.10;;
48552;SDS011;34335;51.566;6.994;2022-07-09T07:37:11;6.07;;;2.60;;
48552;SDS011;34335;51.566;6.994;2022-07-09T07:39:36;6.93;;;3.63;;
48552;SDS011;34335;51.566;6.994;2022-07-09T07:42:02;6.27;;;2.40;;
48552;SDS011;34335;51.566;6.994;2022-07-09T07:44:27;3.95;;;1.58;;
48552;SDS011;34335;51.566;6.994;2022-07-09T07:46:54;4.32;;;1.95;;
48552;SDS011;34335;51.566;6.994;2022-07-09T07:49:19;2.75;;;1.50;;
48552;SDS011;34335;51.566;6.994;2022-07-09T07:51:44;4.20;;;1.50;;
48552;SDS011;34335;51.566;6.994;2022-07-09T07:54:10;5.50;;;1.67;;
48552;SDS011;34335;51.566;6.994;2022-07-09T07:56:35;3.38;;;1.45;;
48552;SDS011;34335;51.566;6.994;2022-07-09T07:59:02;4.15;;;1.50;;
48552;SDS011;34335;51.566;6.994;2022-07-09T08:01:28;4.40;;;1.83;;
48552;SDS011;34335;51.566;6.994;2022-07-09T08:03:53;6.63;;;1.92;;
48552;SDS011;34335;51.566;6.994;2022-07-09T08:06:19;5.60;;;1.30;;
48552;SDS011;34335;51.566;6.994;2022-07-09T08:08:44;5.70;;;2.25;;
48552;SDS011;34335;51.566;6.994;2022-07-09T08:11:09;4.45;;;1.73;;
48552;SDS011;34335;51.566;6.994;2022-07-09T08:13:35;5.90;;;1.83;;
48552;SDS011;34335;51.566;6.994;2022-07-09T08:16:01;4.45;;;2.05;;
48552;SDS011;34335;51.566;6.994;2022-07-09T08:18:27;5.03;;;2.25;;
48552;SDS011;34335;51.566;6.994;2022-07-09T08:20:52;6.73;;;2.10;;
48552;SDS011;34335;51.566;6.994;2022-07-09T08:23:18;4.37;;;1.70;;
48552;SDS011;34335;51.566;6.994;2022-07-09T08:25:43;4.68;;;1.77;;
48552;SDS011;34335;51.566;6.994;2022-07-09T08:28:08;5.25;;;1.60;;
48552;SDS011;34335;51.566;6.994;2022-07-09T08:30:33;3.13;;;1.25;;
48552;SDS011;34335;51.566;6.994;2022-07-09T08:32:59;3.75;;;1.35;;
48552;SDS011;34335;51.566;6.994;2022-07-09T08:35:24;3.57;;;1.27;;
48552;SDS011;34335;51.566;6.994;2022-07-09T08:37:51;3.78;;;1.33;;
48552;SDS011;34335;51.566;6.994;2022-07-09T08:40:16;3.90;;;1.63;;
48552;SDS011;34335;51.566;6.994;2022-07-09T08:42:42;5.90;;;2.60;;
48552;SDS011;34335;51.566;6.994;2022-07-09T08:45:08;5.30;;;2.17;;
48552;SDS011;34335;51.566;6.994;2022-07-09T08:47:37;5.32;;;2.10;;
48552;SDS011;34335;51.566;6.994;2022-07-09T08:50:03;4.15;;;1.92;;
48552;SDS011;34335;51.566;6.994;2022-07-09T08:52:29;4.95;;;2.58;;
48552;SDS011;34335;51.566;6.994;2022-07-09T08:54:55;7.05;;;2.58;;
48552;SDS011;34335;51.566;6.994;2022-07-09T08:57:20;13.17;;;2.50;;
48552;SDS011;34335;51.566;6.994;2022-07-09T08:59:45;6.70;;;2.42;;
48552;SDS011;34335;51.566;6.994;2022-07-09T09:02:11;5.00;;;1.92;;
48552;SDS011;34335;51.566;6.994;2022-07-09T09:04:38;5.45;;;2.35;;
48552;SDS011;34335;51.566;6.994;2022-07-09T09:07:19;3.28;;;1.60;;
48552;SDS011;34335;51.566;6.994;2022-07-09T09:09:46;3.50;;;1.30;;
48552;SDS011;34335;51.566;6.994;2022-07-09T09:12:12;4.80;;;1.45;;
48552;SDS011;34335;51.566;6.994;2022-07-09T09:14:38;5.25;;;1.27;;
48552;SDS011;34335;51.566;6.994;2022-07-09T09:17:05;2.13;;;0.95;;
48552;SDS011;34335;51.566;6.994;2022-07-09T09:19:31;3.35;;;1.60;;
48552;SDS011;34335;51.566;6.994;2022-07-09T09:21:57;4.80;;;1.85;;
48552;SDS011;34335;51.566;6.994;2022-07-09T09:24:22;7.10;;;1.77;;
48552;SDS011;34335;51.566;6.994;2022-07-09T09:26:50;4.80;;;1.58;;
48552;SDS011;34335;51.566;6.994;2022-07-09T09:29:15;5.82;;;1.80;;
48552;SDS011;34335;51.566;6.994;2022-07-09T09:31:40;3.72;;;1.40;;
48552;SDS011;34335;51.566;6.994;2022-07-09T09:36:35;3.10;;;1.40;;
48552;SDS011;34335;51.566;6.994;2022-07-09T09:39:12;4.32;;;1.23;;
48552;SDS011;34335;51.566;6.994;2022-07-09T09:41:38;3.35;;;1.67;;
48552;SDS011;34335;51.566;6.994;2022-07-09T09:44:05;3.10;;;1.38;;
48552;SDS011;34335;51.566;6.994;2022-07-09T09:46:34;4.03;;;1.25;;
48552;SDS011;34335;51.566;6.994;2022-07-09T09:49:06;3.60;;;1.40;;
48552;SDS011;34335;51.566;6.994;2022-07-09T09:51:36;3.15;;;1.15;;
48552;SDS011;34335;51.566;6.994;2022-07-09T09:54:06;3.22;;;1.65;;
48552;SDS011;34335;51.566;6.994;2022-07-09T09:56:33;2.83;;;1.30;;
48552;SDS011;34335;51.566;6.994;2022-07-09T09:58:59;2.22;;;1.13;;
48552;SDS011;34335;51.566;6.994;2022-07-09T10:01:25;3.08;;;1.10;;
48552;SDS011;34335;51.566;6.994;2022-07-09T10:03:53;3.33;;;1.23;;
48552;SDS011;34335;51.566;6.994;2022-07-09T10:06:19;3.35;;;1.38;;
48552;SDS011;34335;51.566;6.994;2022-07-09T10:08:44;3.60;;;1.10;;
48552;SDS011;34335;51.566;6.994;2022-07-09T10:11:10;2.28;;;0.95;;
48552;SDS011;34335;51.566;6.994;2022-07-09T10:13:37;2.83;;;1.10;;
48552;SDS011;34335;51.566;6.994;2022-07-09T10:16:03;2.40;;;1.10;;
48552;SDS011;34335;51.566;6.994;2022-07-09T10:18:29;1.65;;;0.75;;
48552;SDS011;34335;51.566;6.994;2022-07-09T10:20:57;2.07;;;0.90;;
48552;SDS011;34335;51.566;6.994;2022-07-09T10:23:23;2.08;;;0.98;;
48552;SDS011;34335;51.566;6.994;2022-07-09T10:25:49;3.58;;;0.95;;
48552;SDS011;34335;51.566;6.994;2022-07-09T10:28:20;2.40;;;1.02;;
48552;SDS011;34335;51.566;6.994;2022-07-09T10:30:47;2.42;;;1.15;;
48552;SDS011;34335;51.566;6.994;2022-07-09T10:33:13;1.40;;;0.80;;
48552;SDS011;34335;51.566;6.994;2022-07-09T10:35:48;3.25;;;0.98;;
48552;SDS011;34335;51.566;6.994;2022-07-09T10:38:16;1.52;;;0.90;;
48552;SDS011;34335;51.566;6.994;2022-07-09T10:40:43;4.30;;;1.33;;
48552;SDS011;34335;51.566;6.994;2022-07-09T10:43:10;3.17;;;1.10;;
48552;SDS011;34335;51.566;6.994;2022-07-09T10:45:43;3.42;;;1.02;;
48552;SDS011;34335;51.566;6.994;2022-07-09T10:50:37;3.38;;;0.95;;
48552;SDS011;34335;51.566;6.994;2022-07-09T10:53:04;5.07;;;1.48;;
48552;SDS011;34335;51.566;6.994;2022-07-09T10:55:30;2.70;;;1.02;;
48552;SDS011;34335;51.566;6.994;2022-07-09T10:57:55;2.63;;;1.00;;
48552;SDS011;34335;51.566;6.994;2022-07-09T11:00:25;2.45;;;1.15;;
48552;SDS011;34335;51.566;6.994;2022-07-09T11:02:59;2.17;;;0.70;;
48552;SDS011;34335;51.566;6.994;2022-07-09T11:05:30;7.03;;;0.90;;
48552;SDS011;34335;51.566;6.994;2022-07-09T11:08:03;2.08;;;0.80;;
48552;SDS011;34335;51.566;6.994;2022-07-09T11:10:30;1.40;;;0.80;;
48552;SDS011;34335;51.566;6.994;2022-07-09T11:12:58;4.57;;;1.00;;
48552;SDS011;34335;51.566;6.994;2022-07-09T11:15:25;1.90;;;0.77;;
48552;SDS011;34335;51.566;6.994;2022-07-09T11:17:58;3.30;;;0.70;;
48552;SDS011;34335;51.566;6.994;2022-07-09T11:20:38;2.10;;;0.85;;
48552;SDS011;34335;51.566;6.994;2022-07-09T11:23:05;3.40;;;1.30;;
48552;SDS011;34335;51.566;6.994;2022-07-09T11:25:31;4.47;;;1.15;;
48552;SDS011;34335;51.566;6.994;2022-07-09T11:27:57;3.67;;;0.90;;
48552;SDS011;34335;51.566;6.994;2022-07-09T11:30:23;2.55;;;1.30;;
48552;SDS011;34335;51.566;6.994;2022-07-09T11:32:49;2.58;;;1.25;;
48552;SDS011;34335;51.566;6.994;2022-07-09T11:35:31;3.63;;;1.10;;
48552;SDS011;34335;51.566;6.994;2022-07-09T11:37:59;1.95;;;1.10;;
48552;SDS011;34335;51.566;6.994;2022-07-09T11:40:26;2.65;;;1.00;;
48552;SDS011;34335;51.566;6.994;2022-07-09T11:42:52;2.38;;;1.10;;
48552;SDS011;34335;51.566;6.994;2022-07-09T11:45:25;2.65;;;1.10;;
48552;SDS011;34335;51.566;6.994;2022-07-09T11:50:33;1.20;;;0.70;;
48552;SDS011;34335;51.566;6.994;2022-07-09T11:53:05;2.57;;;1.10;;
48552;SDS011;34335;51.566;6.994;2022-07-09T11:55:31;3.27;;;1.20;;
48552;SDS011;34335;51.566;6.994;2022-07-09T11:57:58;2.47;;;1.30;;
48552;SDS011;34335;51.566;6.994;2022-07-09T12:00:30;2.50;;;1.02;;
48552;SDS011;34335;51.566;6.994;2022-07-09T12:02:58;3.35;;;1.45;;
48552;SDS011;34335;51.566;6.994;2022-07-09T12:05:25;2.90;;;1.42;;
48552;SDS011;34335;51.566;6.994;2022-07-09T12:07:59;2.05;;;1.00;;
48552;SDS011;34335;51.566;6.994;2022-07-09T12:10:37;2.13;;;1.13;;
48552;SDS011;34335;51.566;6.994;2022-07-09T12:13:04;3.92;;;1.60;;
48552;SDS011;34335;51.566;6.994;2022-07-09T12:15:31;3.88;;;1.52;;
48552;SDS011;34335;51.566;6.994;2022-07-09T12:17:58;4.50;;;1.80;;
48552;SDS011;34335;51.566;6.994;2022-07-09T12:20:25;3.72;;;1.70;;
48552;SDS011;34335;51.566;6.994;2022-07-09T12:22:52;4.65;;;1.77;;
48552;SDS011;34335;51.566;6.994;2022-07-09T12:25:18;11.20;;;2.50;;
48552;SDS011;34335;51.566;6.994;2022-07-09T12:27:44;3.58;;;2.22;;
48552;SDS011;34335;51.566;6.994;2022-07-09T12:30:10;4.45;;;2.42;;
48552;SDS011;34335;51.566;6.994;2022-07-09T12:32:37;4.72;;;2.60;;
48552;SDS011;34335;51.566;6.994;2022-07-09T12:35:03;5.80;;;3.40;;
48552;SDS011;34335;51.566;6.994;2022-07-09T12:37:28;4.47;;;3.17;;
48552;SDS011;34335;51.566;6.994;2022-07-09T12:39:54;5.35;;;3.88;;
48552;SDS011;34335;51.566;6.994;2022-07-09T12:42:19;4.95;;;2.90;;
48552;SDS011;34335;51.566;6.994;2022-07-09T12:44:46;6.85;;;3.03;;
48552;SDS011;34335;51.566;6.994;2022-07-09T12:47:12;5.85;;;3.10;;
48552;SDS011;34335;51.566;6.994;2022-07-09T12:49:37;5.65;;;3.08;;
48552;SDS011;34335;51.566;6.994;2022-07-09T12:52:02;4.40;;;3.23;;
48552;SDS011;34335;51.566;6.994;2022-07-09T12:54:28;5.88;;;3.58;;
48552;SDS011;34335;51.566;6.994;2022-07-09T12:56:53;5.72;;;3.72;;
48552;SDS011;34335;51.566;6.994;2022-07-09T12:59:20;6.65;;;3.38;;
48552;SDS011;34335;51.566;6.994;2022-07-09T13:01:45;5.47;;;3.42;;
48552;SDS011;34335;51.566;6.994;2022-07-09T13:04:11;6.25;;;3.33;;
48552;SDS011;34335;51.566;6.994;2022-07-09T13:06:36;7.35;;;3.58;;
48552;SDS011;34335;51.566;6.994;2022-07-09T13:09:02;5.23;;;3.30;;
48552;SDS011;34335;51.566;6.994;2022-07-09T13:11:29;4.93;;;3.42;;
48552;SDS011;34335;51.566;6.994;2022-07-09T13:13:55;6.75;;;3.22;;
48552;SDS011;34335;51.566;6.994;2022-07-09T13:16:21;6.85;;;3.40;;
48552;SDS011;34335;51.566;6.994;2022-07-09T13:18:47;4.20;;;3.03;;
48552;SDS011;34335;51.566;6.994;2022-07-09T13:21:13;4.85;;;2.97;;
48552;SDS011;34335;51.566;6.994;2022-07-09T13:23:38;4.05;;;2.67;;
48552;SDS011;34335;51.566;6.994;2022-07-09T13:26:04;3.88;;;2.47;;
48552;SDS011;34335;51.566;6.994;2022-07-09T13:28:29;5.70;;;2.75;;
48552;SDS011;34335;51.566;6.994;2022-07-09T13:30:55;4.63;;;2.60;;
48552;SDS011;34335;51.566;6.994;2022-07-09T13:33:20;3.22;;;2.03;;
48552;SDS011;34335;51.566;6.994;2022-07-09T13:35:45;3.90;;;2.13;;
48552;SDS011;34335;51.566;6.994;2022-07-09T13:38:11;4.43;;;2.20;;
48552;SDS011;34335;51.566;6.994;2022-07-09T13:40:36;5.30;;;2.08;;
48552;SDS011;34335;51.566;6.994;2022-07-09T13:43:02;3.50;;;1.93;;
48552;SDS011;34335;51.566;6.994;2022-07-09T13:45:27;3.38;;;1.88;;
48552;SDS011;34335;51.566;6.994;2022-07-09T13:47:53;3.85;;;1.50;;
48552;SDS011;34335;51.566;6.994;2022-07-09T13:50:19;2.53;;;1.48;;
48552;SDS011;34335;51.566;6.994;2022-07-09T13:52:45;2.70;;;1.23;;
48552;SDS011;34335;51.566;6.994;2022-07-09T13:55:10;4.60;;;1.50;;
48552;SDS011;34335;51.566;6.994;2022-07-09T13:57:35;4.20;;;1.25;;
48552;SDS011;34335;51.566;6.994;2022-07-09T14:00:02;2.92;;;1.20;;
48552;SDS011;34335;51.566;6.994;2022-07-09T14:02:28;2.03;;;0.90;;
48552;SDS011;34335;51.566;6.994;2022-07-09T14:04:55;4.70;;;1.10;;
48552;SDS011;34335;51.566;6.994;2022-07-09T14:07:22;3.00;;;0.85;;
48552;SDS011;34335;51.566;6.994;2022-07-09T14:09:47;3.75;;;1.25;;
48552;SDS011;34335;51.566;6.994;2022-07-09T14:12:12;2.22;;;1.13;;
48552;SDS011;34335;51.566;6.994;2022-07-09T14:14:38;1.57;;;0.80;;
48552;SDS011;34335;51.566;6.994;2022-07-09T14:17:03;3.13;;;1.10;;
48552;SDS011;34335;51.566;6.994;2022-07-09T14:19:29;2.28;;;0.90;;
48552;SDS011;34335;51.566;6.994;2022-07-09T14:21:54;2.03;;;1.02;;
48552;SDS011;34335;51.566;6.994;2022-07-09T14:24:20;1.90;;;0.87;;
48552;SDS011;34335;51.566;6.994;2022-07-09T14:26:45;1.40;;;0.80;;
48552;SDS011;34335;51.566;6.994;2022-07-09T14:29:12;1.13;;;0.77;;
48552;SDS011;34335;51.566;6.994;2022-07-09T14:31:39;5.40;;;1.15;;
48552;SDS011;34335;51.566;6.994;2022-07-09T14:34:04;2.27;;;0.80;;
48552;SDS011;34335;51.566;6.994;2022-07-09T14:36:29;1.77;;;1.03;;
48552;SDS011;34335;51.566;6.994;2022-07-09T14:38:55;2.23;;;0.80;;
48552;SDS011;34335;51.566;6.994;2022-07-09T14:41:20;2.47;;;0.80;;
48552;SDS011;34335;51.566;6.994;2022-07-09T14:43:46;2.92;;;0.95;;
48552;SDS011;34335;51.566;6.994;2022-07-09T14:46:11;2.20;;;0.93;;